Time;durP1;ratioP1;P1;durP2;ratioP2;P2;SDS_P1;SDS_P2;PMS_P1;PMS_P2;Temp;Humidity;BMP_temperature;BMP_pressure;BME280_temperature;BME280_humidity;BME280_pressure;Samples;Min_cycle;Max_cycle;Signal;HPM_P1;HPM_P2
2022/07/24 00:01:02;;;;;;;4.63;3.28;;;17.00;99.90;;;;;;5058300;28;20416;-79
2022/07/24 00:03:46;;;;;;;4.03;3.10;;;16.90;99.90;;;;;;5058638;28;20407;-78
2022/07/24 00:06:31;;;;;;;5.28;3.30;;;16.90;99.90;;;;;;5052421;28;20388;-81
2022/07/24 00:09:15;;;;;;;4.55;3.50;;;16.90;99.90;;;;;;5062220;28;20517;-79
2022/07/24 00:11:59;;;;;;;4.95;3.47;;;16.80;99.90;;;;;;5062416;28;20416;-78
2022/07/24 00:14:43;;;;;;;5.65;3.40;;;16.80;99.90;;;;;;5056139;28;20463;-79
2022/07/24 00:17:28;;;;;;;5.60;3.50;;;16.80;99.90;;;;;;5059356;28;20412;-78
2022/07/24 00:20:12;;;;;;;3.75;3.30;;;16.80;99.90;;;;;;5054789;28;20434;-80
2022/07/24 00:22:56;;;;;;;4.75;3.15;;;16.80;99.90;;;;;;5054920;28;20382;-79
2022/07/24 00:25:40;;;;;;;4.95;3.40;;;16.80;99.90;;;;;;5066868;28;20393;-79
2022/07/24 00:28:24;;;;;;;4.45;3.63;;;16.70;99.90;;;;;;5058495;28;20396;-79
2022/07/24 00:31:10;;;;;;;5.10;3.72;;;16.70;99.90;;;;;;5059172;28;20523;-79
2022/07/24 00:33:55;;;;;;;5.83;3.77;;;16.60;99.90;;;;;;5057657;28;20410;-78
2022/07/24 00:36:43;;;;;;;3.83;3.50;;;16.60;99.90;;;;;;5057755;28;20391;-79
2022/07/24 00:39:27;;;;;;;4.25;3.85;;;16.50;99.90;;;;;;5052418;28;20446;-80
2022/07/24 00:42:12;;;;;;;4.05;3.42;;;16.50;99.90;;;;;;5054778;28;20410;-79
2022/07/24 00:44:56;;;;;;;5.63;3.72;;;16.50;99.90;;;;;;5058007;28;20441;-78
2022/07/24 00:47:41;;;;;;;4.75;3.72;;;16.50;99.90;;;;;;5057157;28;20404;-79
2022/07/24 00:50:25;;;;;;;4.93;3.55;;;16.50;99.90;;;;;;5043166;28;20765;-79
2022/07/24 00:53:10;;;;;;;3.70;3.40;;;16.50;99.90;;;;;;5059631;28;20483;-80
2022/07/24 00:55:54;;;;;;;4.37;3.50;;;16.40;99.90;;;;;;5048074;28;20429;-79
2022/07/24 00:58:38;;;;;;;3.78;3.47;;;16.40;99.90;;;;;;5056813;28;20527;-79
2022/07/24 01:01:23;;;;;;;4.18;3.55;;;16.30;99.90;;;;;;5056446;28;20402;-78
2022/07/24 01:04:08;;;;;;;4.25;3.72;;;16.30;99.90;;;;;;5055118;28;20394;-78
2022/07/24 01:06:52;;;;;;;5.40;4.07;;;16.30;99.90;;;;;;5054959;28;20395;-79
2022/07/24 01:09:37;;;;;;;5.05;3.63;;;16.30;99.90;;;;;;5059238;28;20868;-78
2022/07/24 01:12:22;;;;;;;4.10;3.70;;;16.30;99.90;;;;;;5057094;28;20412;-78
2022/07/24 01:15:08;;;;;;;4.80;3.88;;;16.30;99.90;;;;;;5064626;28;20420;-79
2022/07/24 01:17:53;;;;;;;4.03;3.60;;;16.30;99.90;;;;;;5056526;28;20398;-79
2022/07/24 01:20:38;;;;;;;5.25;3.75;;;16.30;99.90;;;;;;5047588;28;20441;-78
2022/07/24 01:23:23;;;;;;;4.60;3.80;;;16.20;99.90;;;;;;5052380;28;20438;-79
2022/07/24 01:26:08;;;;;;;4.15;3.75;;;16.30;99.90;;;;;;5059408;28;20444;-78
2022/07/24 01:28:53;;;;;;;5.38;3.70;;;16.30;99.90;;;;;;5056080;28;20392;-79
2022/07/24 01:31:37;;;;;;;4.23;3.60;;;16.30;99.90;;;;;;5051849;28;20385;-79
2022/07/24 01:34:21;;;;;;;4.43;3.93;;;16.20;99.90;;;;;;5051053;28;20408;-79
2022/07/24 01:37:05;;;;;;;5.40;4.00;;;16.20;99.90;;;;;;5060037;28;20751;-79
2022/07/24 01:39:49;;;;;;;4.80;4.40;;;16.10;99.90;;;;;;5059939;28;20386;-79
2022/07/24 01:42:33;;;;;;;5.13;3.88;;;16.10;99.90;;;;;;5064028;28;20433;-79
2022/07/24 01:45:18;;;;;;;4.35;3.95;;;16.10;99.90;;;;;;5050296;28;20391;-79
2022/07/24 01:48:03;;;;;;;5.25;4.28;;;16.10;99.90;;;;;;5058525;28;20751;-79
2022/07/24 01:50:47;;;;;;;4.30;4.00;;;16.10;99.90;;;;;;5049635;28;20401;-78
2022/07/24 01:53:31;;;;;;;5.22;4.20;;;16.00;99.90;;;;;;5050662;28;20463;-79
2022/07/24 01:56:15;;;;;;;4.63;4.22;;;16.00;99.90;;;;;;5056029;28;20382;-79
2022/07/24 01:59:00;;;;;;;5.30;4.17;;;16.00;99.90;;;;;;5047030;28;20428;-79
2022/07/24 02:01:44;;;;;;;5.25;4.00;;;15.90;99.90;;;;;;5060018;28;20380;-79
2022/07/24 02:04:28;;;;;;;4.50;4.10;;;15.90;99.90;;;;;;5054950;28;20392;-79
2022/07/24 02:07:12;;;;;;;4.93;4.10;;;15.90;99.90;;;;;;5057770;28;20452;-79
2022/07/24 02:09:56;;;;;;;4.80;4.13;;;15.90;99.90;;;;;;5057575;28;20393;-79
2022/07/24 02:12:40;;;;;;;4.50;4.00;;;15.90;99.90;;;;;;5054740;28;20443;-79
2022/07/24 02:15:25;;;;;;;5.63;4.40;;;15.90;99.90;;;;;;5049947;28;20435;-79
2022/07/24 02:18:09;;;;;;;5.18;4.25;;;15.90;99.90;;;;;;5054558;28;20395;-79
2022/07/24 02:20:54;;;;;;;4.93;4.40;;;16.00;99.90;;;;;;5043554;28;20405;-78
2022/07/24 02:23:38;;;;;;;5.20;4.35;;;16.00;99.90;;;;;;5053057;28;20388;-79
2022/07/24 02:26:22;;;;;;;5.50;4.70;;;16.00;99.90;;;;;;5060998;28;20937;-79
2022/07/24 02:29:06;;;;;;;5.93;5.03;;;16.00;99.90;;;;;;5057746;28;21103;-79
2022/07/24 02:31:50;;;;;;;5.32;4.70;;;16.00;99.90;;;;;;5060698;28;20400;-79
2022/07/24 02:34:34;;;;;;;5.78;4.88;;;16.00;99.90;;;;;;5057097;28;20416;-79
2022/07/24 02:37:18;;;;;;;4.90;4.40;;;16.00;99.90;;;;;;5049012;28;20894;-79
2022/07/24 02:40:03;;;;;;;5.40;5.00;;;15.90;99.90;;;;;;5057192;28;20438;-79
2022/07/24 02:42:47;;;;;;;5.40;4.90;;;15.90;99.90;;;;;;5063076;28;20410;-79
2022/07/24 02:45:31;;;;;;;5.90;4.73;;;15.90;99.90;;;;;;5045560;28;20394;-79
2022/07/24 02:48:15;;;;;;;5.20;4.70;;;15.90;99.90;;;;;;5050643;28;20418;-79
2022/07/24 02:50:59;;;;;;;5.47;4.90;;;15.90;99.90;;;;;;5055510;28;20529;-79
2022/07/24 02:53:43;;;;;;;5.75;5.07;;;15.90;99.90;;;;;;5060389;28;20524;-79
2022/07/24 02:56:28;;;;;;;5.30;4.80;;;15.90;99.90;;;;;;5044860;28;20406;-78
2022/07/24 02:59:12;;;;;;;5.40;4.90;;;15.90;99.90;;;;;;5047549;28;20478;-79
2022/07/24 03:01:56;;;;;;;6.82;5.00;;;15.90;99.90;;;;;;5053138;28;20376;-79
2022/07/24 03:04:40;;;;;;;5.43;4.93;;;15.80;99.90;;;;;;5057542;28;20420;-79
2022/07/24 03:07:24;;;;;;;5.50;5.00;;;15.90;99.90;;;;;;5062946;28;20510;-79
2022/07/24 03:10:11;;;;;;;5.68;5.18;;;15.80;99.90;;;;;;5066578;28;20470;-79
2022/07/24 03:12:55;;;;;;;6.38;5.40;;;15.80;99.90;;;;;;5058275;28;20448;-79
2022/07/24 03:15:39;;;;;;;6.00;5.38;;;15.80;99.90;;;;;;5056979;28;20382;-79
2022/07/24 03:18:23;;;;;;;6.32;5.20;;;15.80;99.90;;;;;;5059221;28;20940;-79
2022/07/24 03:21:07;;;;;;;5.57;5.05;;;15.90;99.90;;;;;;5064728;28;20383;-79
2022/07/24 03:23:51;;;;;;;5.30;4.80;;;15.90;99.90;;;;;;5071788;28;20382;-79
2022/07/24 03:26:35;;;;;;;5.95;4.70;;;15.90;99.90;;;;;;5056730;28;20455;-81
2022/07/24 03:29:20;;;;;;;6.00;5.40;;;15.90;99.90;;;;;;5062718;28;20384;-78
2022/07/24 03:32:05;;;;;;;5.93;5.13;;;15.90;99.90;;;;;;5065503;28;20393;-79
2022/07/24 03:34:49;;;;;;;5.70;5.10;;;15.90;99.90;;;;;;5061182;28;20417;-79
2022/07/24 03:37:33;;;;;;;6.10;5.50;;;15.90;99.90;;;;;;5062992;28;20498;-79
2022/07/24 03:40:18;;;;;;;7.53;5.45;;;15.80;99.90;;;;;;5057729;28;20422;-79
2022/07/24 03:43:02;;;;;;;6.00;5.40;;;15.80;99.90;;;;;;5064769;28;20398;-78
2022/07/24 03:45:46;;;;;;;5.90;5.38;;;15.80;99.90;;;;;;5066451;28;20401;-78
2022/07/24 03:48:30;;;;;;;6.30;5.65;;;15.80;99.90;;;;;;5065448;28;20407;-79
2022/07/24 03:51:14;;;;;;;6.55;5.85;;;15.70;99.90;;;;;;5064586;28;20420;-78
2022/07/24 03:53:59;;;;;;;7.57;5.60;;;15.70;99.90;;;;;;5074196;28;20563;-78
2022/07/24 03:56:44;;;;;;;6.57;5.85;;;15.70;99.90;;;;;;5055762;28;20502;-80
2022/07/24 03:59:28;;;;;;;6.43;5.88;;;15.70;99.90;;;;;;5055401;28;20400;-79
2022/07/24 04:02:12;;;;;;;6.53;5.90;;;15.70;99.90;;;;;;5059464;28;20390;-79
2022/07/24 04:04:57;;;;;;;6.30;5.70;;;15.60;99.90;;;;;;5065307;28;20393;-79
2022/07/24 04:07:41;;;;;;;6.45;5.85;;;15.60;99.90;;;;;;5059370;28;20470;-79
2022/07/24 04:10:25;;;;;;;6.90;6.20;;;15.70;99.90;;;;;;5060969;28;20395;-81
2022/07/24 04:13:09;;;;;;;7.65;5.88;;;15.70;99.90;;;;;;5058493;28;20386;-79
2022/07/24 04:15:54;;;;;;;7.57;5.93;;;15.70;99.90;;;;;;5061104;28;20391;-78
2022/07/24 04:18:38;;;;;;;6.88;6.03;;;15.70;99.90;;;;;;5059102;28;20436;-79
2022/07/24 04:21:22;;;;;;;8.73;6.10;;;15.70;99.90;;;;;;5060429;28;20397;-79
2022/07/24 04:24:06;;;;;;;6.65;6.05;;;15.70;99.90;;;;;;5069418;28;20391;-79
2022/07/24 04:26:50;;;;;;;6.60;6.00;;;15.70;99.90;;;;;;5061374;28;20396;-79
2022/07/24 04:29:35;;;;;;;6.82;6.22;;;15.60;99.90;;;;;;5054411;28;20497;-79
2022/07/24 04:32:19;;;;;;;7.37;6.00;;;15.60;99.90;;;;;;5052645;28;20406;-80
2022/07/24 04:35:04;;;;;;;6.43;5.83;;;15.60;99.90;;;;;;5057432;28;20479;-79
2022/07/24 04:37:49;;;;;;;7.57;6.35;;;15.60;99.90;;;;;;5062708;28;20882;-79
2022/07/24 04:40:33;;;;;;;7.00;6.30;;;15.70;99.90;;;;;;5046598;28;20450;-79
2022/07/24 04:43:17;;;;;;;6.88;6.20;;;15.70;99.90;;;;;;5057758;28;20403;-78
2022/07/24 04:46:01;;;;;;;8.15;6.05;;;15.70;99.90;;;;;;5058820;28;20539;-79
2022/07/24 04:48:45;;;;;;;7.53;6.10;;;15.70;99.90;;;;;;5059162;28;20413;-79
2022/07/24 04:51:30;;;;;;;6.50;5.90;;;15.80;99.90;;;;;;5051806;28;20453;-79
2022/07/24 04:54:14;;;;;;;6.82;5.78;;;15.80;99.90;;;;;;5058846;28;20410;-80
2022/07/24 04:56:58;;;;;;;6.95;6.28;;;15.80;99.90;;;;;;5050325;28;20441;-79
2022/07/24 04:59:42;;;;;;;6.47;5.78;;;15.80;99.90;;;;;;5059383;28;20399;-79
2022/07/24 05:02:27;;;;;;;6.97;5.93;;;15.80;99.90;;;;;;5054997;28;20380;-79
2022/07/24 05:05:11;;;;;;;6.85;5.70;;;15.80;99.90;;;;;;5064190;28;20437;-80
2022/07/24 05:07:55;;;;;;;7.60;5.50;;;15.90;99.90;;;;;;5059752;28;20428;-79
2022/07/24 05:10:40;;;;;;;6.40;5.80;;;15.90;99.90;;;;;;5060209;28;20383;-78
2022/07/24 05:13:24;;;;;;;6.20;5.60;;;15.90;99.90;;;;;;5050227;28;20422;-79
2022/07/24 05:16:08;;;;;;;6.15;5.55;;;15.90;99.90;;;;;;5040222;28;20453;-78
2022/07/24 05:18:52;;;;;;;6.97;5.80;;;15.90;99.90;;;;;;5057779;28;20422;-78
2022/07/24 05:21:36;;;;;;;7.10;5.53;;;16.00;99.90;;;;;;5057107;28;21089;-79
2022/07/24 05:24:20;;;;;;;7.03;5.60;;;16.00;99.90;;;;;;5058693;28;20890;-78
2022/07/24 05:27:04;;;;;;;6.10;5.50;;;16.00;99.90;;;;;;5061159;28;20392;-78
2022/07/24 05:29:48;;;;;;;6.00;5.40;;;16.10;99.90;;;;;;5051250;28;20388;-78
2022/07/24 05:32:32;;;;;;;8.15;5.47;;;16.10;99.90;;;;;;5057956;28;20391;-78
2022/07/24 05:35:16;;;;;;;6.65;5.32;;;16.20;99.90;;;;;;5054054;28;20426;-79
2022/07/24 05:38:00;;;;;;;6.28;5.50;;;16.20;99.90;;;;;;5048238;28;20440;-79
2022/07/24 05:40:44;;;;;;;5.78;5.28;;;16.30;99.90;;;;;;5046371;28;20416;-75
2022/07/24 05:43:29;;;;;;;5.82;5.32;;;16.30;99.90;;;;;;5048561;28;20389;-74
2022/07/24 05:46:14;;;;;;;6.00;5.40;;;16.40;99.90;;;;;;5053315;28;20387;-74
2022/07/24 05:48:58;;;;;;;6.03;5.43;;;16.40;99.90;;;;;;5043889;28;20974;-75
2022/07/24 05:51:43;;;;;;;8.95;5.80;;;16.50;99.90;;;;;;5048540;28;20449;-76
2022/07/24 05:54:27;;;;;;;6.72;5.30;;;16.50;99.90;;;;;;5051885;28;20432;-75
2022/07/24 05:57:12;;;;;;;6.28;4.95;;;16.60;99.90;;;;;;5040505;28;20423;-74
2022/07/24 05:59:57;;;;;;;6.95;5.38;;;16.70;99.90;;;;;;5050359;28;20915;-75
2022/07/24 06:02:41;;;;;;;7.50;5.45;;;16.80;99.90;;;;;;5048780;28;20417;-75
2022/07/24 06:05:25;;;;;;;6.72;4.93;;;16.90;99.90;;;;;;5062823;28;20490;-75
2022/07/24 06:08:09;;;;;;;6.63;5.18;;;16.90;99.90;;;;;;5058392;28;20501;-75
2022/07/24 06:10:53;;;;;;;9.07;5.60;;;17.00;99.90;;;;;;5051451;28;20471;-75
2022/07/24 06:13:37;;;;;;;9.18;4.97;;;17.00;99.90;;;;;;5057237;28;20410;-74
2022/07/24 06:16:21;;;;;;;6.88;5.30;;;17.10;99.90;;;;;;5049244;28;20391;-75
2022/07/24 06:19:05;;;;;;;6.13;4.80;;;17.20;99.90;;;;;;5058860;28;20382;-75
2022/07/24 06:21:49;;;;;;;6.97;4.90;;;17.30;99.90;;;;;;5054719;28;20408;-74
2022/07/24 06:24:33;;;;;;;7.43;5.40;;;17.40;99.90;;;;;;5043316;28;20439;-75
2022/07/24 06:27:17;;;;;;;8.88;5.20;;;17.50;99.90;;;;;;5050055;28;20452;-75
2022/07/24 06:30:01;;;;;;;5.97;4.65;;;17.60;99.90;;;;;;5050079;28;20404;-75
2022/07/24 06:32:45;;;;;;;6.93;4.30;;;17.70;99.90;;;;;;5053448;28;20490;-74
2022/07/24 06:35:32;;;;;;;7.78;4.80;;;17.80;99.90;;;;;;5037658;28;20394;-74
2022/07/24 06:38:16;;;;;;;8.13;4.53;;;18.00;99.90;;;;;;5046840;28;20418;-76
2022/07/24 06:41:00;;;;;;;8.87;4.53;;;18.10;99.90;;;;;;5050847;28;20398;-74
2022/07/24 06:43:44;;;;;;;7.20;4.60;;;18.20;99.90;;;;;;5053155;28;20788;-75
2022/07/24 06:46:29;;;;;;;6.28;4.50;;;18.30;99.90;;;;;;5049958;28;20799;-75
2022/07/24 06:49:13;;;;;;;7.83;5.50;;;18.40;99.90;;;;;;5061644;28;20469;-75
2022/07/24 06:51:56;;;;;;;5.53;4.65;;;18.50;99.90;;;;;;5060268;28;20437;-75
2022/07/24 06:54:41;;;;;;;7.88;5.10;;;18.70;99.90;;;;;;5061558;28;20567;-74
2022/07/24 06:57:25;;;;;;;6.50;4.70;;;18.80;99.90;;;;;;5042448;28;20398;-75
2022/07/24 07:00:11;;;;;;;8.55;5.10;;;19.00;99.90;;;;;;5059480;28;20389;-74
2022/07/24 07:02:55;;;;;;;7.45;4.32;;;19.10;99.90;;;;;;5048508;28;20389;-75
2022/07/24 07:05:39;;;;;;;9.05;4.93;;;19.20;99.90;;;;;;5055881;28;20398;-75
2022/07/24 07:08:23;;;;;;;7.18;4.15;;;19.30;99.90;;;;;;5048614;28;20477;-75
2022/07/24 07:11:07;;;;;;;6.43;3.97;;;19.40;99.90;;;;;;5062142;28;20520;-75
2022/07/24 07:13:51;;;;;;;7.70;3.55;;;19.50;99.90;;;;;;5058653;28;20444;-75
2022/07/24 07:16:35;;;;;;;6.37;4.03;;;19.60;99.90;;;;;;5049042;28;20384;-75
2022/07/24 07:19:19;;;;;;;11.23;5.90;;;19.80;99.90;;;;;;5055800;28;20441;-76
2022/07/24 07:22:03;;;;;;;7.45;4.60;;;19.90;99.90;;;;;;5063716;28;20499;-75
2022/07/24 07:24:47;;;;;;;7.05;4.32;;;20.00;99.90;;;;;;5042470;28;20392;-75
2022/07/24 07:27:31;;;;;;;7.78;3.88;;;20.20;99.90;;;;;;5058564;28;20395;-74
2022/07/24 07:30:15;;;;;;;5.35;3.90;;;20.30;99.90;;;;;;5055777;28;20425;-75
2022/07/24 07:32:59;;;;;;;6.28;3.90;;;20.50;99.90;;;;;;5060979;28;20406;-75
2022/07/24 07:35:43;;;;;;;7.05;4.22;;;20.60;99.90;;;;;;5055207;28;20395;-75
2022/07/24 07:38:27;;;;;;;4.53;4.05;;;20.70;99.90;;;;;;5050363;28;20512;-75
2022/07/24 07:41:12;;;;;;;7.88;5.03;;;20.90;99.90;;;;;;5046133;28;20372;-74
2022/07/24 07:43:58;;;;;;;5.90;4.00;;;20.90;99.90;;;;;;5058353;28;20396;-75
2022/07/24 07:46:43;;;;;;;7.53;4.10;;;21.00;99.90;;;;;;5058006;28;20424;-75
2022/07/24 07:49:27;;;;;;;7.82;4.60;;;21.20;99.90;;;;;;5055634;28;20400;-75
2022/07/24 07:52:12;;;;;;;9.00;5.18;;;21.30;99.90;;;;;;5046883;28;20402;-75
2022/07/24 07:54:56;;;;;;;8.23;5.88;;;21.40;99.90;;;;;;5048456;28;20482;-74
2022/07/24 07:57:41;;;;;;;6.68;4.60;;;21.50;99.90;;;;;;5044171;28;20496;-75
2022/07/24 08:00:25;;;;;;;7.50;4.60;;;21.60;99.90;;;;;;5047898;28;20446;-75
2022/07/24 08:03:09;;;;;;;6.45;4.25;;;21.70;99.90;;;;;;5051924;28;20425;-75
2022/07/24 08:05:53;;;;;;;8.73;4.73;;;21.80;99.90;;;;;;5060400;28;20395;-75
2022/07/24 08:08:37;;;;;;;6.93;5.10;;;21.90;99.90;;;;;;5046374;28;20447;-74
2022/07/24 08:11:22;;;;;;;5.45;4.72;;;22.00;99.90;;;;;;5048093;28;20425;-76
2022/07/24 08:14:06;;;;;;;5.53;5.00;;;22.10;99.90;;;;;;5052133;28;20450;-76
2022/07/24 08:16:50;;;;;;;7.57;4.72;;;22.20;99.90;;;;;;5051173;28;20438;-76
2022/07/24 08:19:34;;;;;;;5.10;4.43;;;22.30;99.90;;;;;;5049620;28;20400;-75
2022/07/24 08:22:19;;;;;;;5.43;4.43;;;22.50;99.90;;;;;;5053495;28;20390;-76
2022/07/24 08:25:03;;;;;;;6.40;4.47;;;22.60;99.90;;;;;;5052730;28;20415;-76
2022/07/24 08:27:47;;;;;;;4.80;3.83;;;22.70;99.90;;;;;;5046170;28;20909;-77
2022/07/24 08:30:32;;;;;;;4.35;3.92;;;22.90;99.90;;;;;;5054118;28;20518;-76
2022/07/24 08:33:16;;;;;;;4.85;3.70;;;23.00;99.90;;;;;;5052430;28;20389;-76
2022/07/24 08:36:00;;;;;;;4.47;3.50;;;23.20;99.90;;;;;;5067377;28;20437;-76
2022/07/24 08:38:44;;;;;;;4.07;3.20;;;23.40;99.90;;;;;;5043661;28;20946;-76
2022/07/24 08:41:35;;;;;;;5.47;3.95;;;23.50;99.90;;;;;;5055491;28;20384;-76
2022/07/24 08:44:19;;;;;;;5.25;3.28;;;23.60;99.90;;;;;;5047583;28;20763;-76
2022/07/24 08:47:03;;;;;;;4.53;3.38;;;23.80;99.90;;;;;;5055155;28;20484;-76
2022/07/24 08:49:51;;;;;;;5.18;3.50;;;23.90;99.90;;;;;;5051199;28;20427;-77
2022/07/24 08:52:36;;;;;;;5.95;3.63;;;24.00;99.90;;;;;;5057438;28;20387;-76
2022/07/24 08:55:22;;;;;;;4.55;3.55;;;24.10;99.90;;;;;;5048334;28;20410;-76
2022/07/24 08:58:06;;;;;;;4.07;3.65;;;24.20;99.90;;;;;;5063126;28;20815;-77
2022/07/24 09:00:50;;;;;;;4.65;3.95;;;24.10;99.90;;;;;;5051982;28;20424;-76
2022/07/24 09:03:43;;;;;;;6.68;3.80;;;24.30;99.90;;;;;;5054434;28;20415;-76
2022/07/24 09:06:28;;;;;;;4.82;3.33;;;24.40;99.90;;;;;;5047934;28;20405;-76
2022/07/24 09:09:12;;;;;;;6.83;3.50;;;24.30;99.90;;;;;;5047270;28;20752;-77
2022/07/24 09:12:22;;;;;;;6.82;3.92;;;24.60;99.90;;;;;;5050019;28;20464;-76
2022/07/24 09:15:23;;;;;;;6.20;4.05;;;24.70;99.90;;;;;;5055423;28;20493;-77
2022/07/24 09:18:08;;;;;;;5.95;3.60;;;24.80;99.90;;;;;;5047753;28;20484;-77
2022/07/24 09:20:51;;;;;;;5.10;3.58;;;24.90;99.90;;;;;;5035282;28;20409;-77
2022/07/24 09:23:37;;;;;;;4.05;3.55;;;25.00;99.90;;;;;;5052296;28;20476;-76
2022/07/24 09:26:22;;;;;;;5.35;3.75;;;25.10;99.90;;;;;;5050924;28;20395;-77
2022/07/24 09:29:11;;;;;;;4.68;3.35;;;25.10;99.90;;;;;;5050384;28;20479;-77
2022/07/24 09:32:01;;;;;;;5.70;3.70;;;25.10;99.90;;;;;;5058809;28;20397;-77
2022/07/24 09:34:45;;;;;;;5.53;3.88;;;25.10;99.90;;;;;;5036979;28;20499;-77
2022/07/24 09:37:30;;;;;;;7.30;4.05;;;25.20;99.90;;;;;;5048066;28;20398;-78
2022/07/24 09:40:16;;;;;;;6.30;3.80;;;25.20;99.90;;;;;;5043220;28;20457;-77
2022/07/24 09:43:24;;;;;;;4.70;3.97;;;25.30;99.90;;;;;;5049048;28;20406;-77
2022/07/24 09:46:09;;;;;;;5.93;3.90;;;25.30;99.90;;;;;;5057134;28;20386;-77
2022/07/24 09:48:59;;;;;;;4.97;3.90;;;25.40;99.90;;;;;;5045825;28;20404;-77
2022/07/24 09:51:43;;;;;;;6.87;3.93;;;25.40;99.90;;;;;;5051236;28;20395;-77
2022/07/24 09:54:31;;;;;;;7.68;3.97;;;25.50;99.90;;;;;;5058579;28;20456;-77
2022/07/24 09:57:27;;;;;;;6.00;4.07;;;25.50;99.90;;;;;;5046601;28;20396;-77
2022/07/24 10:00:12;;;;;;;5.35;4.05;;;25.50;99.90;;;;;;5045129;28;20386;-77
2022/07/24 10:02:59;;;;;;;6.70;4.40;;;25.60;99.90;;;;;;5050669;28;20405;-77
2022/07/24 10:05:46;;;;;;;6.65;4.13;;;25.60;99.90;;;;;;5061953;28;20418;-76
2022/07/24 10:08:31;;;;;;;5.72;4.03;;;25.70;99.90;;;;;;5044971;28;20459;-77
2022/07/24 10:11:16;;;;;;;7.63;4.22;;;25.80;99.90;;;;;;5044707;28;20457;-79
2022/07/24 10:14:01;;;;;;;6.22;4.13;;;26.00;99.90;;;;;;5052741;28;20422;-77
2022/07/24 10:16:54;;;;;;;6.45;4.60;;;26.10;99.90;;;;;;5054029;28;20441;-77
2022/07/24 10:19:47;;;;;;;7.25;4.47;;;26.10;99.90;;;;;;5051339;28;20424;-77
2022/07/24 10:23:01;;;;;;;7.07;4.40;;;26.10;99.90;;;;;;5049011;28;20422;-77
2022/07/24 10:26:11;;;;;;;5.68;4.60;;;26.00;99.90;;;;;;5046141;28;20392;-77
2022/07/24 10:29:10;;;;;;;6.47;4.60;;;26.10;99.90;;;;;;5053262;28;20508;-77
2022/07/24 10:31:56;;;;;;;7.40;4.18;;;26.20;99.90;;;;;;5046102;28;20404;-77
2022/07/24 10:34:47;;;;;;;8.07;4.70;;;26.30;99.90;;;;;;5047186;28;20428;-77
2022/07/24 10:38:07;;;;;;;6.97;4.80;;;26.30;99.90;;;;;;5046729;28;20384;-77
2022/07/24 10:40:54;;;;;;;7.53;4.68;;;26.30;99.90;;;;;;5057527;28;20405;-78
2022/07/24 10:43:38;;;;;;;7.40;5.00;;;26.50;99.90;;;;;;5047334;28;20387;-78
2022/07/24 10:46:22;;;;;;;7.55;4.80;;;26.60;99.90;;;;;;5047769;28;20380;-78
2022/07/24 10:49:06;;;;;;;5.15;4.60;;;26.60;99.90;;;;;;5053197;28;20469;-77
2022/07/24 10:52:00;;;;;;;5.83;5.10;;;26.60;99.90;;;;;;5058517;28;20476;-76
2022/07/24 10:54:44;;;;;;;6.88;5.20;;;26.60;99.90;;;;;;5051771;28;20429;-77
2022/07/24 10:57:54;;;;;;;6.68;4.97;;;26.50;99.90;;;;;;5047888;28;20400;-77
2022/07/24 11:00:45;;;;;;;5.50;4.97;;;26.50;99.90;;;;;;5040712;28;20884;-77
2022/07/24 11:03:32;;;;;;;6.22;4.80;;;26.50;99.90;;;;;;5056573;28;20394;-77
2022/07/24 11:06:17;;;;;;;7.30;4.80;;;26.60;99.90;;;;;;5051380;28;20440;-77
2022/07/24 11:09:03;;;;;;;7.97;5.20;;;26.70;99.90;;;;;;5050566;28;20412;-79
2022/07/24 11:11:53;;;;;;;6.10;4.97;;;26.80;99.90;;;;;;5043881;28;20445;-78
2022/07/24 11:14:37;;;;;;;8.43;5.50;;;26.80;99.90;;;;;;5048487;28;20516;-77
2022/07/24 11:17:42;;;;;;;5.80;5.20;;;26.70;99.90;;;;;;5043409;28;20380;-77
2022/07/24 11:20:34;;;;;;;6.47;5.25;;;26.80;99.90;;;;;;5038231;28;20447;-77
2022/07/24 11:23:21;;;;;;;6.15;5.18;;;26.90;99.90;;;;;;5057045;28;20898;-77
2022/07/24 11:26:30;;;;;;;5.60;5.00;;;27.00;99.90;;;;;;5042340;28;20394;-78
2022/07/24 11:29:21;;;;;;;6.03;4.82;;;27.10;99.90;;;;;;5052305;28;20424;-78
2022/07/24 11:32:10;;;;;;;7.25;4.82;;;27.30;99.90;;;;;;5055605;28;20396;-78
2022/07/24 11:34:54;;;;;;;10.48;5.38;;;27.30;99.90;;;;;;5051638;28;20420;-77
2022/07/24 11:37:40;;;;;;;7.40;5.10;;;27.40;99.90;;;;;;5052507;28;20390;-77
2022/07/24 11:40:24;;;;;;;6.35;4.90;;;27.40;99.90;;;;;;5054492;28;20407;-77
2022/07/24 11:43:12;;;;;;;8.10;5.10;;;27.40;99.90;;;;;;5053706;28;20429;-77
2022/07/24 11:45:56;;;;;;;8.10;5.22;;;27.50;99.90;;;;;;5048693;28;20436;-78
2022/07/24 11:48:41;;;;;;;7.15;5.00;;;27.50;99.90;;;;;;5047188;28;20434;-79
2022/07/24 11:51:24;;;;;;;6.03;4.68;;;27.50;99.90;;;;;;5050300;28;20402;-77
2022/07/24 11:54:11;;;;;;;6.05;5.00;;;27.60;99.90;;;;;;5053418;28;20408;-77
2022/07/24 11:56:56;;;;;;;7.40;5.35;;;27.70;99.90;;;;;;5046358;28;20446;-78
2022/07/24 11:59:40;;;;;;;5.57;4.70;;;27.70;99.90;;;;;;5047936;28;21000;-77
2022/07/24 12:02:25;;;;;;;7.85;5.22;;;27.70;99.90;;;;;;5048243;28;20481;-76
2022/07/24 12:05:09;;;;;;;6.80;5.00;;;27.70;99.90;;;;;;5059125;28;20433;-78
2022/07/24 12:07:59;;;;;;;6.43;5.10;;;27.70;99.90;;;;;;5058447;28;20397;-78
2022/07/24 12:10:44;;;;;;;6.80;5.30;;;27.80;99.90;;;;;;5046585;28;20458;-78
2022/07/24 12:13:30;;;;;;;6.07;4.82;;;27.70;99.90;;;;;;5039415;28;20401;-78
2022/07/24 12:16:28;;;;;;;6.38;5.13;;;27.70;99.90;;;;;;5051610;28;20453;-77
2022/07/24 12:19:24;;;;;;;8.20;5.00;;;27.70;99.90;;;;;;5053865;28;20470;-77
2022/07/24 12:22:08;;;;;;;6.28;5.15;;;27.70;99.90;;;;;;5053535;28;20771;-78
2022/07/24 12:24:55;;;;;;;6.68;5.15;;;27.70;99.90;;;;;;5056210;28;20385;-78
2022/07/24 12:27:42;;;;;;;7.95;5.38;;;27.70;99.90;;;;;;5047648;28;20959;-78
2022/07/24 12:30:28;;;;;;;6.93;5.30;;;27.70;99.90;;;;;;5046758;28;20394;-78
2022/07/24 12:33:17;;;;;;;6.80;5.63;;;27.70;99.90;;;;;;5048253;28;20402;-78
2022/07/24 12:36:17;;;;;;;5.82;5.20;;;27.70;99.90;;;;;;5058815;28;20468;-78
2022/07/24 12:39:04;;;;;;;6.00;5.35;;;27.70;99.90;;;;;;5052414;28;20413;-78
2022/07/24 12:41:48;;;;;;;6.00;5.40;;;27.70;99.90;;;;;;5038492;28;20428;-79
2022/07/24 12:44:42;;;;;;;7.32;5.55;;;27.70;99.90;;;;;;5060374;28;20379;-78
2022/07/24 12:47:26;;;;;;;5.90;5.18;;;27.70;99.90;;;;;;5045196;28;20391;-79
2022/07/24 12:50:14;;;;;;;7.35;5.15;;;27.70;99.90;;;;;;5046584;28;20811;-79
2022/07/24 12:53:08;;;;;;;5.75;5.20;;;27.70;99.90;;;;;;5053994;28;20385;-79
2022/07/24 12:56:16;;;;;;;7.35;5.22;;;27.90;99.90;;;;;;5046814;28;20491;-79
2022/07/24 12:59:02;;;;;;;7.38;4.95;;;27.90;99.90;;;;;;5047771;28;20398;-79
2022/07/24 13:01:55;;;;;;;7.03;5.10;;;28.00;99.90;;;;;;5049461;28;20396;-80
2022/07/24 13:04:45;;;;;;;5.40;4.90;;;28.10;99.90;;;;;;5053422;28;20948;-79
2022/07/24 13:07:29;;;;;;;6.55;5.05;;;28.10;99.90;;;;;;5041278;28;20433;-79
2022/07/24 13:10:13;;;;;;;8.35;5.03;;;28.10;99.90;;;;;;5050240;28;20462;-80
2022/07/24 13:12:57;;;;;;;7.00;4.70;;;28.10;99.90;;;;;;5048550;28;20407;-79
2022/07/24 13:15:42;;;;;;;5.47;4.70;;;28.20;99.90;;;;;;5054347;28;20470;-80
2022/07/24 13:18:26;;;;;;;6.68;5.00;;;28.30;99.90;;;;;;5046697;28;20485;-79
2022/07/24 13:21:10;;;;;;;6.30;4.90;;;28.40;99.90;;;;;;5055249;28;20437;-79
2022/07/24 13:23:55;;;;;;;6.15;4.72;;;28.40;99.90;;;;;;5050656;28;20437;-79
2022/07/24 13:26:41;;;;;;;5.80;4.80;;;28.40;99.90;;;;;;5048838;28;20399;-79
2022/07/24 13:29:26;;;;;;;5.20;4.40;;;28.40;99.90;;;;;;5047523;28;20557;-79
2022/07/24 13:32:11;;;;;;;7.47;4.73;;;28.50;99.90;;;;;;5056770;28;20419;-80
2022/07/24 13:34:55;;;;;;;5.22;4.22;;;28.40;99.90;;;;;;5047952;28;20436;-79
2022/07/24 13:37:39;;;;;;;5.53;4.30;;;28.40;99.90;;;;;;5053241;28;20407;-81
2022/07/24 13:40:23;;;;;;;6.22;4.57;;;28.50;99.90;;;;;;5055610;28;20391;-80
2022/07/24 13:43:07;;;;;;;6.45;4.75;;;28.60;99.90;;;;;;5047563;28;20399;-82
2022/07/24 13:45:51;;;;;;;6.70;4.40;;;28.60;99.90;;;;;;5056919;28;20905;-79
2022/07/24 13:48:35;;;;;;;4.72;4.20;;;28.60;99.90;;;;;;5060036;28;20434;-80
2022/07/24 13:51:20;;;;;;;5.00;4.47;;;28.60;99.90;;;;;;5055368;28;20449;-80
2022/07/24 13:54:05;;;;;;;6.20;4.35;;;28.70;99.90;;;;;;5051549;28;20410;-80
2022/07/24 13:56:50;;;;;;;6.30;4.20;;;28.70;99.90;;;;;;5047323;28;20418;-79
2022/07/24 13:59:34;;;;;;;8.07;4.10;;;28.70;99.90;;;;;;5046120;28;20397;-80
2022/07/24 14:02:18;;;;;;;6.10;3.90;;;28.70;99.90;;;;;;5052305;28;20448;-80
2022/07/24 14:05:02;;;;;;;4.70;4.20;;;28.70;99.90;;;;;;5056109;28;20892;-79
2022/07/24 14:07:47;;;;;;;5.57;4.72;;;28.60;99.90;;;;;;5056010;28;20447;-80
2022/07/24 14:10:31;;;;;;;8.60;4.50;;;28.60;99.90;;;;;;5053894;28;20394;-80
2022/07/24 14:13:15;;;;;;;5.63;4.75;;;28.60;99.90;;;;;;5040284;28;20490;-79
2022/07/24 14:15:59;;;;;;;7.00;4.78;;;28.70;99.90;;;;;;5052650;28;20440;-80
2022/07/24 14:18:43;;;;;;;5.20;4.70;;;28.70;99.90;;;;;;5042366;28;20507;-80
2022/07/24 14:21:28;;;;;;;5.40;4.57;;;28.70;99.90;;;;;;5055953;28;20436;-80
2022/07/24 14:24:13;;;;;;;5.57;4.50;;;28.80;99.90;;;;;;5057094;28;20415;-81